Time;durP1;ratioP1;P1;durP2;ratioP2;P2;SDS_P1;SDS_P2;PMS_P1;PMS_P2;Temp;Humidity;BMP_temperature;BMP_pressure;BME280_temperature;BME280_humidity;BME280_pressure;Samples;Min_cycle;Max_cycle;Signal;HPM_P1;HPM_P2
2023/05/03 00:01:42;;;;;;;36.00;27.20;;;;;;;7.08;100.00;101923.50;106541;1256;72511;-86
2023/05/03 00:04:13;;;;;;;36.60;34.90;;;;;;;7.06;100.00;101915.55;106352;1257;60542;-88
2023/05/03 00:06:42;;;;;;;33.00;25.70;;;;;;;7.04;100.00;101919.40;105981;1257;60460;-89
2023/05/03 00:09:10;;;;;;;64.20;25.50;;;;;;;7.01;100.00;101923.84;105861;1259;74742;-87
2023/05/03 00:11:37;;;;;;;35.70;25.00;;;;;;;6.94;100.00;101922.61;105925;1254;64996;-88
2023/05/03 00:14:04;;;;;;;28.50;22.60;;;;;;;6.90;100.00;101920.46;106039;1257;73655;-89
2023/05/03 00:16:31;;;;;;;35.20;24.50;;;;;;;6.85;100.00;101920.73;105908;1257;62749;-86
2023/05/03 00:18:59;;;;;;;29.30;22.60;;;;;;;6.83;100.00;101922.18;106726;1257;60501;-87
2023/05/03 00:21:27;;;;;;;32.70;22.60;;;;;;;6.83;100.00;101923.73;106056;1254;73775;-86
2023/05/03 00:23:54;;;;;;;29.60;22.10;;;;;;;6.84;100.00;101924.23;105846;1257;64933;-86
2023/05/03 00:26:21;;;;;;;32.00;21.90;;;;;;;6.83;100.00;101928.95;106721;1254;73673;-86
2023/05/03 00:28:48;;;;;;;31.40;22.30;;;;;;;6.81;100.00;101929.88;106710;1254;61749;-84
2023/05/03 00:31:15;;;;;;;30.80;20.00;;;;;;;6.80;100.00;101929.73;106827;1254;61314;-83
2023/05/03 00:33:44;;;;;;;33.30;22.30;;;;;;;6.76;100.00;101935.55;106201;1257;74913;-86
2023/05/03 00:36:12;;;;;;;26.50;20.20;;;;;;;6.71;100.00;101934.97;108414;1254;63810;-85
2023/05/03 00:38:40;;;;;;;31.20;22.10;;;;;;;6.71;100.00;101938.98;107623;1254;72654;-87
2023/05/03 00:41:11;;;;;;;31.50;23.20;;;;;;;6.73;100.00;101940.31;106123;1254;60602;-89
2023/05/03 00:43:38;;;;;;;33.70;21.30;;;;;;;6.74;100.00;101938.56;105753;1259;60495;-88
2023/05/03 00:46:06;;;;;;;25.60;21.20;;;;;;;6.69;100.00;101941.61;105951;1258;75045;-87
2023/05/03 00:48:49;;;;;;;32.30;21.00;;;;;;;6.62;100.00;101943.15;105863;1257;65868;-86
2023/05/03 00:51:17;;;;;;;28.30;19.20;;;;;;;6.57;100.00;101942.92;106617;1254;73541;-86
2023/05/03 00:53:44;;;;;;;27.60;16.50;;;;;;;6.51;100.00;101941.84;105974;1257;62196;-86
2023/05/03 00:58:42;;;;;;;25.40;17.90;;;;;;;6.46;100.00;101939.52;102995;1289;600908;-89
2023/05/03 01:01:12;;;;;;;24.90;14.70;;;;;;;6.41;100.00;101945.70;105461;1260;62919;-88
2023/05/03 01:03:40;;;;;;;26.50;14.70;;;;;;;6.40;100.00;101941.38;105424;1261;61216;-89
2023/05/03 01:06:31;;;;;;;22.90;15.50;;;;;;;6.40;100.00;101943.12;105373;1259;73073;-87
2023/05/03 01:09:05;;;;;;;21.30;14.00;;;;;;;6.39;100.00;101940.36;105582;1257;66209;-89
2023/05/03 01:11:46;;;;;;;24.80;16.00;;;;;;;6.39;100.00;101937.22;104979;1266;767508;-86
2023/05/03 01:14:40;;;;;;;22.20;13.80;;;;;;;6.40;100.00;101935.12;106106;1257;63926;-87
2023/05/03 01:17:13;;;;;;;28.30;14.80;;;;;;;6.42;100.00;101932.48;105842;1257;60084;-85
2023/05/03 01:19:44;;;;;;;25.00;15.60;;;;;;;6.41;100.00;101935.27;105805;1260;74236;-87
2023/05/03 01:22:21;;;;;;;25.10;14.60;;;;;;;6.43;100.00;101932.28;105783;1260;66054;-87
2023/05/03 01:24:51;;;;;;;20.80;13.80;;;;;;;6.46;100.00;101934.13;105771;1258;73543;-86
2023/05/03 01:27:18;;;;;;;27.90;17.60;;;;;;;6.47;100.00;101933.60;105330;1262;62228;-87
2023/05/03 01:29:45;;;;;;;21.20;13.90;;;;;;;6.44;100.00;101936.25;105803;1255;61097;-87
2023/05/03 01:32:18;;;;;;;18.60;12.90;;;;;;;6.41;100.00;101933.54;107636;1256;74930;-85
2023/05/03 01:35:12;;;;;;;18.80;12.40;;;;;;;6.37;100.00;101933.96;107506;1254;65848;-86
2023/05/03 01:37:40;;;;;;;26.40;13.30;;;;;;;6.32;100.00;101937.03;105786;1264;73527;-84
2023/05/03 01:40:08;;;;;;;17.10;12.20;;;;;;;6.26;100.00;101937.33;105676;1265;64214;-86
2023/05/03 01:42:38;;;;;;;16.00;11.30;;;;;;;6.25;100.00;101939.09;106516;1263;61457;-85
2023/05/03 01:45:06;;;;;;;16.60;12.60;;;;;;;6.27;100.00;101944.61;108140;1259;75043;-86
2023/05/03 01:47:33;;;;;;;20.30;12.20;;;;;;;6.27;100.00;101944.61;109003;1259;64670;-86
2023/05/03 01:50:00;;;;;;;19.20;12.50;;;;;;;6.29;100.00;101946.83;106105;1260;73479;-87
2023/05/03 01:52:29;;;;;;;15.90;10.70;;;;;;;6.30;100.00;101948.20;107673;1259;63855;-85
2023/05/03 01:54:56;;;;;;;24.00;12.80;;;;;;;6.31;100.00;101945.55;109204;1258;61158;-85
2023/05/03 01:57:23;;;;;;;20.60;13.50;;;;;;;6.34;100.00;101946.90;109107;1259;73782;-85
2023/05/03 01:59:50;;;;;;;23.20;14.50;;;;;;;6.35;100.00;101947.39;106487;1259;65511;-86
2023/05/03 02:02:17;;;;;;;19.00;15.10;;;;;;;6.37;100.00;101948.04;105508;1262;74803;-85
2023/05/03 02:04:46;;;;;;;27.30;15.00;;;;;;;6.38;100.00;101947.49;105604;1260;62040;-85
2023/05/03 02:07:13;;;;;;;21.30;14.50;;;;;;;6.38;100.00;101950.10;105494;1262;62212;-83
2023/05/03 02:09:40;;;;;;;20.50;14.40;;;;;;;6.37;100.00;101957.61;105438;1260;73863;-88
2023/05/03 02:12:08;;;;;;;20.80;14.00;;;;;;;6.34;100.00;101962.36;106862;1260;64906;-88
2023/05/03 02:14:36;;;;;;;19.60;13.20;;;;;;;6.30;100.00;101963.98;105944;1256;74381;-86
2023/05/03 02:17:03;;;;;;;17.90;12.80;;;;;;;6.28;100.00;101964.22;106364;1254;62981;-87
2023/05/03 02:19:30;;;;;;;17.00;13.40;;;;;;;6.26;100.00;101966.16;107089;1256;62487;-85
2023/05/03 02:21:57;;;;;;;18.40;13.30;;;;;;;6.24;100.00;101968.28;106379;1254;74993;-87
2023/05/03 02:24:24;;;;;;;24.80;14.70;;;;;;;6.26;100.00;101964.42;105894;1259;64797;-88
2023/05/03 02:26:51;;;;;;;20.80;15.50;;;;;;;6.31;100.00;101968.13;106068;1254;73893;-88
2023/05/03 02:29:18;;;;;;;20.90;14.70;;;;;;;6.37;100.00;101972.38;106237;1252;63201;-85
2023/05/03 02:31:45;;;;;;;23.00;14.40;;;;;;;6.39;100.00;101973.54;107887;1253;59599;-83
2023/05/03 02:34:12;;;;;;;21.70;14.00;;;;;;;6.42;100.00;101974.86;108307;1253;74159;-85
2023/05/03 02:36:39;;;;;;;25.20;15.60;;;;;;;6.42;100.00;101976.42;107215;1256;65656;-83
2023/05/03 02:39:07;;;;;;;24.90;15.60;;;;;;;6.44;100.00;101978.83;108820;1252;73741;-84
2023/05/03 02:41:34;;;;;;;23.60;15.10;;;;;;;6.45;100.00;101979.14;107014;1257;61000;-84
2023/05/03 02:44:01;;;;;;;22.50;14.40;;;;;;;6.47;100.00;101975.64;106612;1252;60520;-89
2023/05/03 02:46:28;;;;;;;20.90;16.70;;;;;;;6.47;100.00;101977.20;106048;1256;75120;-88
2023/05/03 02:48:55;;;;;;;16.10;13.70;;;;;;;6.45;100.00;101977.23;106384;1256;65874;-87
2023/05/03 02:51:23;;;;;;;21.80;12.50;;;;;;;6.43;100.00;101975.89;105781;1257;74868;-87
2023/05/03 02:53:50;;;;;;;19.40;12.00;;;;;;;6.44;100.00;101976.04;106077;1254;64063;-89
2023/05/03 02:56:17;;;;;;;21.50;13.50;;;;;;;6.43;100.00;101977.09;106408;1257;61386;-86
2023/05/03 02:58:45;;;;;;;26.10;14.00;;;;;;;6.44;100.00;101978.80;106110;1259;75256;-88
2023/05/03 03:01:13;;;;;;;22.00;11.30;;;;;;;6.45;100.00;101982.45;106033;1258;65967;-90
2023/05/03 03:03:40;;;;;;;22.80;12.40;;;;;;;6.50;100.00;101985.30;106203;1257;74649;-89
2023/05/03 03:06:09;;;;;;;20.50;11.70;;;;;;;6.54;100.00;101987.81;106158;1254;62066;-87
2023/05/03 03:08:36;;;;;;;17.10;12.20;;;;;;;6.57;100.00;101987.22;107051;1252;61263;-86
2023/05/03 03:11:04;;;;;;;27.20;12.10;;;;;;;6.62;100.00;101991.28;109353;1252;73994;-87
2023/05/03 03:13:31;;;;;;;21.20;13.40;;;;;;;6.69;100.00;101992.55;107858;1254;64757;-88
2023/05/03 03:15:58;;;;;;;20.00;13.90;;;;;;;6.74;100.00;101996.59;106393;1254;74641;-87
2023/05/03 03:18:25;;;;;;;24.40;14.50;;;;;;;6.80;100.00;101997.52;105973;1261;62380;-87
2023/05/03 03:20:53;;;;;;;19.70;13.60;;;;;;;6.83;100.00;102000.03;106851;1254;62047;-88
2023/05/03 03:23:21;;;;;;;23.40;13.60;;;;;;;6.87;100.00;102002.05;107177;1252;75717;-85
2023/05/03 03:27:20;;;;;;;21.00;15.00;;;;;;;6.94;100.00;102001.20;105023;1284;615207;-89
2023/05/03 03:29:48;;;;;;;20.00;12.80;;;;;;;6.94;100.00;102007.96;106478;1271;62779;-87
2023/05/03 03:32:16;;;;;;;24.70;14.10;;;;;;;7.00;100.00;102007.85;106009;1267;60200;-88
2023/05/03 03:34:43;;;;;;;20.00;14.20;;;;;;;7.07;100.00;102007.85;105908;1264;73155;-86
2023/05/03 03:37:11;;;;;;;23.90;14.90;;;;;;;7.14;100.00;102010.13;106009;1261;64422;-89
2023/05/03 03:39:39;;;;;;;21.50;14.70;;;;;;;7.21;100.00;102010.48;105653;1254;816763;-89
2023/05/03 03:42:10;;;;;;;21.40;14.50;;;;;;;7.31;100.00;102016.36;106886;1252;63404;-87
2023/05/03 03:44:37;;;;;;;28.20;16.60;;;;;;;7.41;100.00;102010.52;108767;1252;60202;-87
2023/05/03 03:47:04;;;;;;;26.10;17.10;;;;;;;7.54;100.00;102010.73;106833;1252;72587;-86
2023/05/03 03:49:35;;;;;;;28.80;18.00;;;;;;;7.66;100.00;102013.91;106313;1256;64541;-89
2023/05/03 03:52:05;;;;;;;30.70;18.20;;;;;;;7.81;100.00;102009.70;106067;1262;73440;-87
2023/05/03 03:54:34;;;;;;;24.40;17.00;;;;;;;7.97;100.00;102012.08;106385;1257;61915;-86
2023/05/03 03:57:02;;;;;;;31.50;17.50;;;;;;;8.12;100.00;102017.74;107982;1256;60998;-89
2023/05/03 03:59:29;;;;;;;36.90;18.00;;;;;;;8.29;100.00;102014.66;109161;1257;72746;-87
2023/05/03 04:02:04;;;;;;;28.60;15.40;;;;;;;8.50;100.00;102020.56;106273;1261;64620;-90
2023/05/03 04:04:32;;;;;;;27.70;16.10;;;;;;;8.69;100.00;102021.40;106434;1257;72519;-89
2023/05/03 04:07:00;;;;;;;31.60;15.70;;;;;;;8.90;100.00;102023.41;107841;1256;60356;-90
2023/05/03 04:09:29;;;;;;;29.10;15.00;;;;;;;9.20;100.00;102024.38;108666;1256;60124;-87
2023/05/03 04:12:00;;;;;;;24.70;15.80;;;;;;;9.61;100.00;102021.65;106310;1262;73017;-91
2023/05/03 04:14:28;;;;;;;24.20;14.70;;;;;;;10.16;100.00;102018.56;105832;1261;63858;-90
2023/05/03 04:16:55;;;;;;;28.90;13.90;;;;;;;10.70;100.00;102014.98;106729;1256;72593;-89
2023/05/03 04:19:25;;;;;;;23.40;15.20;;;;;;;11.19;100.00;102017.30;106968;1255;62660;-89
2023/05/03 04:21:52;;;;;;;24.70;13.30;;;;;;;11.61;100.00;102020.67;106421;1252;61225;-89
2023/05/03 04:24:20;;;;;;;30.70;15.00;;;;;;;11.92;100.00;102023.76;106523;1256;74295;-89
2023/05/03 04:26:50;;;;;;;31.00;15.00;;;;;;;12.17;100.00;102022.36;108103;1256;63893;-84
2023/05/03 04:29:28;;;;;;;24.60;13.30;;;;;;;12.40;100.00;102023.94;109966;1254;72602;-87
2023/05/03 04:31:56;;;;;;;21.60;13.20;;;;;;;12.60;100.00;102025.15;106647;1254;60241;-87
2023/05/03 04:34:23;;;;;;;16.50;11.50;;;;;;;12.81;99.68;102026.26;106320;1254;61966;-87
2023/05/03 04:36:53;;;;;;;21.00;9.60;;;;;;;12.99;97.31;102022.78;106240;1254;73081;-89
2023/05/03 04:39:22;;;;;;;19.60;11.40;;;;;;;13.12;94.68;102026.18;106317;1256;64980;-87
2023/05/03 04:41:49;;;;;;;22.70;12.30;;;;;;;13.26;95.08;102026.24;107486;1254;73843;-88
2023/05/03 04:44:17;;;;;;;23.70;11.70;;;;;;;13.38;95.21;102024.42;108065;1254;61396;-89
2023/05/03 04:46:44;;;;;;;21.20;11.30;;;;;;;13.55;94.84;102029.03;109270;1254;61141;-89
2023/05/03 04:49:15;;;;;;;16.30;8.40;;;;;;;13.74;93.77;102026.00;109848;1253;72880;-87
2023/05/03 04:51:42;;;;;;;16.60;8.50;;;;;;;13.96;92.29;102027.30;109826;1253;63681;-87
2023/05/03 04:54:09;;;;;;;28.90;8.90;;;;;;;14.30;91.19;102028.02;108795;1256;72614;-88
2023/05/03 04:56:37;;;;;;;15.00;7.50;;;;;;;14.76;90.40;102028.19;106678;1254;60153;-90
2023/05/03 04:59:14;;;;;;;13.90;7.30;;;;;;;15.43;87.64;102031.83;106163;1254;61895;-89
2023/05/03 05:01:41;;;;;;;16.10;6.10;;;;;;;16.19;84.43;102031.77;106266;1257;72910;-91
2023/05/03 05:04:09;;;;;;;12.70;6.90;;;;;;;17.01;80.33;102033.22;106422;1256;65075;-92
2023/05/03 05:06:46;;;;;;;16.50;6.60;;;;;;;17.86;77.16;102032.19;106356;1255;74320;-91
2023/05/03 05:09:24;;;;;;;5.30;3.30;;;;;;;18.65;71.28;102036.95;105959;1256;61297;-89
2023/05/03 05:11:53;;;;;;;4.40;2.70;;;;;;;19.43;62.25;102033.41;106247;1253;59954;-89
2023/05/03 05:14:29;;;;;;;6.80;2.60;;;;;;;20.15;56.25;102035.58;105961;1257;74181;-89
2023/05/03 05:16:56;;;;;;;6.80;3.80;;;;;;;20.82;52.53;102035.83;106188;1256;63795;-87
2023/05/03 05:19:23;;;;;;;6.10;3.20;;;;;;;21.38;50.71;102036.20;106025;1256;73903;-88
2023/05/03 05:21:51;;;;;;;16.40;3.30;;;;;;;21.90;48.54;102033.63;105998;1255;60832;-83
2023/05/03 05:24:18;;;;;;;8.10;2.10;;;;;;;22.37;45.57;102035.08;106159;1254;60269;-90
2023/05/03 05:26:45;;;;;;;4.90;1.80;;;;;;;22.81;43.74;102032.59;105947;1254;73559;-90
2023/05/03 05:29:15;;;;;;;2.60;1.40;;;;;;;23.25;41.56;102030.98;105696;1260;63509;-91
2023/05/03 05:31:43;;;;;;;5.70;1.90;;;;;;;23.67;38.48;102030.20;106225;1257;73680;-90
2023/05/03 05:34:10;;;;;;;4.40;1.20;;;;;;;24.06;37.04;102033.48;106377;1252;60263;-91
2023/05/03 05:36:37;;;;;;;2.50;1.10;;;;;;;24.41;35.06;102032.47;106508;1257;61320;-91
2023/05/03 05:39:04;;;;;;;2.20;1.00;;;;;;;24.70;33.56;102032.70;107880;1254;73343;-90
2023/05/03 05:41:33;;;;;;;4.20;1.50;;;;;;;25.02;34.38;102035.85;107891;1253;64833;-87
2023/05/03 05:44:00;;;;;;;14.10;1.80;;;;;;;25.30;34.31;102032.75;106981;1253;72651;-89
2023/05/03 05:46:28;;;;;;;4.10;1.20;;;;;;;25.55;32.58;102032.50;109571;1253;60170;-92
2023/05/03 05:48:55;;;;;;;1.90;1.20;;;;;;;25.82;31.47;102033.20;108748;1253;60160;-89
2023/05/03 05:51:22;;;;;;;3.20;1.70;;;;;;;26.10;30.55;102030.54;107851;1253;73061;-90
2023/05/03 05:53:50;;;;;;;3.60;1.10;;;;;;;26.31;30.17;102031.65;107977;1256;63567;-90
2023/05/03 05:56:19;;;;;;;2.80;1.70;;;;;;;26.53;29.33;102031.35;109454;1254;72424;-87
2023/05/03 05:58:46;;;;;;;4.60;1.30;;;;;;;26.72;28.34;102029.21;109260;1252;60393;-86
2023/05/03 06:01:13;;;;;;;4.10;1.20;;;;;;;26.83;27.63;102031.25;108922;1256;60784;-90
2023/05/03 06:03:41;;;;;;;5.20;1.00;;;;;;;26.92;26.80;102024.14;107006;1256;74033;-89
2023/05/03 06:06:09;;;;;;;3.90;1.80;;;;;;;27.01;26.07;102021.20;107133;1255;63795;-87
2023/05/03 06:08:36;;;;;;;5.10;1.40;;;;;;;27.12;27.09;102024.52;108437;1253;72407;-90
2023/05/03 06:11:04;;;;;;;1.30;1.10;;;;;;;27.28;26.16;102027.63;109699;1251;61067;-89
2023/05/03 06:13:33;;;;;;;5.40;1.60;;;;;;;27.44;25.01;102026.80;108240;1256;60112;-88
2023/05/03 06:16:01;;;;;;;4.80;1.50;;;;;;;27.57;24.79;102024.06;106348;1257;73447;-87
2023/05/03 06:18:28;;;;;;;4.20;1.40;;;;;;;27.74;24.37;102026.20;108083;1254;64813;-87
2023/05/03 06:20:55;;;;;;;3.30;1.60;;;;;;;27.87;23.90;102023.00;109515;1251;72631;-90
2023/05/03 06:23:23;;;;;;;3.80;1.20;;;;;;;27.93;23.40;102018.85;108613;1256;61108;-88
2023/05/03 06:25:51;;;;;;;3.50;1.20;;;;;;;27.96;23.37;102019.45;106462;1260;60072;-86
2023/05/03 06:28:19;;;;;;;3.00;0.90;;;;;;;28.07;23.47;102024.27;105949;1255;73798;-88
2023/05/03 06:30:50;;;;;;;4.00;1.20;;;;;;;28.18;23.36;102021.10;106031;1256;63949;-88
2023/05/03 06:33:17;;;;;;;4.20;1.00;;;;;;;28.22;23.46;102021.42;105955;1256;73656;-89
2023/05/03 06:35:47;;;;;;;4.80;1.40;;;;;;;28.31;23.60;102020.30;106043;1265;61405;-90
2023/05/03 06:38:16;;;;;;;4.30;1.50;;;;;;;28.42;23.66;102014.58;105981;1256;61182;-87
2023/05/03 06:40:44;;;;;;;3.20;1.40;;;;;;;28.56;23.30;102014.61;105872;1257;74113;-91
2023/05/03 06:43:12;;;;;;;5.40;1.50;;;;;;;28.73;23.48;102015.33;105990;1253;64337;-88
2023/05/03 06:46:09;;;;;;;2.80;1.70;;;;;;;28.87;22.79;102018.28;106131;1253;73578;-87
2023/05/03 06:48:38;;;;;;;1.60;0.80;;;;;;;28.93;22.49;102016.42;106189;1256;60341;-90
2023/05/03 06:51:05;;;;;;;2.10;1.20;;;;;;;28.93;22.18;102018.44;106083;1256;61580;-91
2023/05/03 06:53:33;;;;;;;3.40;0.90;;;;;;;28.87;22.26;102017.17;106077;1254;74125;-87
2023/05/03 06:56:00;;;;;;;3.90;1.00;;;;;;;28.96;22.22;102020.59;106202;1256;64960;-89
2023/05/03 06:58:27;;;;;;;5.00;1.10;;;;;;;29.11;23.37;102024.06;106066;1257;73906;-89
2023/05/03 07:00:54;;;;;;;4.70;1.30;;;;;;;29.25;22.59;102020.78;106132;1253;61725;-87
2023/05/03 07:03:22;;;;;;;2.00;0.90;;;;;;;29.46;22.37;102022.17;107913;1254;61517;-86
2023/05/03 07:05:49;;;;;;;11.80;2.00;;;;;;;29.59;21.34;102018.85;109361;1254;72909;-90
2023/05/03 07:08:16;;;;;;;3.40;0.80;;;;;;;29.61;21.25;102017.17;106198;1258;64702;-89
2023/05/03 07:10:43;;;;;;;1.50;0.90;;;;;;;29.66;21.88;102015.30;106083;1254;74172;-89
2023/05/03 07:13:10;;;;;;;1.10;0.90;;;;;;;29.62;21.23;102015.33;105951;1256;61836;-89
2023/05/03 07:15:37;;;;;;;2.70;0.90;;;;;;;29.53;20.62;102012.50;106031;1257;60178;-89
2023/05/03 07:18:04;;;;;;;1.20;0.80;;;;;;;29.60;21.34;102008.73;106082;1254;73036;-89
2023/05/03 07:20:31;;;;;;;1.70;1.00;;;;;;;29.77;21.72;102010.52;105970;1254;65370;-91
2023/05/03 07:23:00;;;;;;;4.20;1.10;;;;;;;29.89;21.04;102009.20;106286;1254;72616;-87
2023/05/03 07:25:28;;;;;;;4.50;1.40;;;;;;;29.96;21.31;102007.70;106307;1254;61627;-90
2023/05/03 07:27:55;;;;;;;2.70;0.60;;;;;;;30.02;22.14;102012.38;105874;1257;60268;-91
2023/05/03 07:30:22;;;;;;;3.60;1.30;;;;;;;30.15;21.64;102013.37;105822;1257;74284;-93
2023/05/03 07:32:49;;;;;;;2.90;1.00;;;;;;;30.29;21.95;102008.48;105919;1256;64597;-89
2023/05/03 07:35:18;;;;;;;4.80;1.10;;;;;;;30.41;21.42;102005.48;105966;1254;73722;-88
2023/05/03 07:37:45;;;;;;;1.30;0.60;;;;;;;30.50;20.79;102007.77;105880;1254;61273;-87
2023/05/03 07:40:12;;;;;;;2.40;0.90;;;;;;;30.60;20.11;102005.09;106050;1256;60431;-88
2023/05/03 07:42:39;;;;;;;1.60;1.30;;;;;;;30.74;20.42;102007.70;105930;1257;74583;-87
2023/05/03 07:45:07;;;;;;;1.90;0.90;;;;;;;30.81;20.54;102010.97;106051;1254;63796;-89
2023/05/03 07:47:38;;;;;;;3.60;1.20;;;;;;;30.85;20.38;102017.04;105780;1254;74088;-87
2023/05/03 07:50:06;;;;;;;4.10;1.20;;;;;;;30.92;20.60;102015.79;106188;1258;60479;-88
2023/05/03 07:52:37;;;;;;;3.10;0.80;;;;;;;30.92;19.78;102016.42;106070;1254;61714;-88
2023/05/03 07:55:06;;;;;;;3.50;1.00;;;;;;;30.85;19.68;102015.60;106118;1254;73976;-91
2023/05/03 07:57:33;;;;;;;3.10;1.00;;;;;;;30.83;20.04;102012.20;105962;1257;63794;-87
2023/05/03 08:00:00;;;;;;;1.50;1.00;;;;;;;30.89;20.85;102010.67;107585;1252;72635;-85
2023/05/03 08:02:27;;;;;;;1.20;0.90;;;;;;;31.00;20.12;102010.15;107266;1254;61888;-88
2023/05/03 08:04:55;;;;;;;1.80;1.40;;;;;;;31.05;19.36;102007.79;106505;1257;61558;-88
2023/05/03 08:07:23;;;;;;;2.30;1.10;;;;;;;30.96;19.38;102005.91;106282;1254;75870;-87
2023/05/03 08:09:52;;;;;;;2.50;1.00;;;;;;;30.82;19.65;102005.69;106193;1254;65599;-90
2023/05/03 08:12:19;;;;;;;2.90;1.00;;;;;;;30.82;21.31;102005.91;105909;1257;73907;-88
2023/05/03 08:14:46;;;;;;;2.20;0.90;;;;;;;30.99;21.10;102002.40;106087;1254;61652;-90
2023/05/03 08:17:13;;;;;;;1.60;1.00;;;;;;;31.06;21.04;102003.67;105926;1256;61081;-88
2023/05/03 08:19:41;;;;;;;1.20;0.70;;;;;;;31.08;20.08;101999.62;106477;1253;75317;-89
2023/05/03 08:22:09;;;;;;;3.40;0.90;;;;;;;31.10;19.93;101996.49;108773;1253;64069;-88
2023/05/03 08:24:37;;;;;;;1.90;0.70;;;;;;;31.16;20.03;101990.86;109621;1254;72541;-87
2023/05/03 08:27:05;;;;;;;3.20;1.20;;;;;;;31.35;20.07;101990.45;107918;1252;61032;-88
2023/05/03 08:29:33;;;;;;;12.70;1.20;;;;;;;31.38;19.92;101989.05;106381;1254;61336;-87
2023/05/03 08:32:01;;;;;;;4.80;2.20;;;;;;;31.37;20.01;101989.05;107481;1252;73864;-88
2023/05/03 08:34:28;;;;;;;2.00;1.00;;;;;;;31.31;20.08;101987.20;109543;1253;63760;-89
2023/05/03 08:36:56;;;;;;;5.30;1.40;;;;;;;31.28;20.84;101982.80;108039;1258;72453;-89
2023/05/03 08:39:26;;;;;;;2.50;0.90;;;;;;;31.34;21.05;101982.05;106127;1254;60556;-88
2023/05/03 08:41:53;;;;;;;3.90;0.90;;;;;;;31.46;20.86;101980.82;106322;1255;61609;-89
2023/05/03 08:44:22;;;;;;;1.50;0.90;;;;;;;31.51;19.91;101981.55;106141;1256;74305;-89
2023/05/03 08:46:49;;;;;;;2.10;1.00;;;;;;;31.55;19.04;101981.91;106190;1257;64705;-89
2023/05/03 08:49:17;;;;;;;1.70;1.00;;;;;;;31.48;20.01;101978.73;106244;1254;73507;-89
2023/05/03 08:51:48;;;;;;;3.80;2.50;;;;;;;31.57;19.55;101979.33;106372;1254;61407;-90
2023/05/03 08:54:17;;;;;;;2.10;1.30;;;;;;;31.66;19.08;101976.25;106360;1255;60463;-90
2023/05/03 08:56:45;;;;;;;3.60;1.20;;;;;;;31.77;19.77;101979.28;106180;1257;74859;-87
2023/05/03 08:59:16;;;;;;;2.90;0.90;;;;;;;31.91;19.17;101977.77;106130;1260;64593;-89
2023/05/03 09:01:42;;;;;;;2.50;0.80;;;;;;;31.93;18.81;101977.51;106168;1253;72384;-88
2023/05/03 09:04:10;;;;;;;4.70;1.20;;;;;;;31.86;19.00;101967.31;106075;1257;61568;-87
2023/05/03 09:06:37;;;;;;;2.20;0.90;;;;;;;31.82;19.07;101964.88;106180;1254;60328;-88
2023/05/03 09:09:07;;;;;;;1.60;0.70;;;;;;;31.67;19.25;101969.30;106118;1255;73788;-89
2023/05/03 09:11:35;;;;;;;4.80;1.60;;;;;;;31.63;19.92;101967.56;106232;1253;63926;-87
2023/05/03 09:14:09;;;;;;;1.40;1.20;;;;;;;31.73;19.37;101966.77;106497;1256;73575;-88
2023/05/03 09:16:37;;;;;;;3.50;1.10;;;;;;;31.82;19.57;101966.66;106404;1254;61211;-86
2023/05/03 09:19:08;;;;;;;1.30;0.80;;;;;;;31.95;18.85;101962.98;105965;1257;60527;-87
2023/05/03 09:21:35;;;;;;;2.10;0.90;;;;;;;31.90;19.03;101957.73;106184;1256;73930;-87
2023/05/03 09:24:10;;;;;;;1.80;0.80;;;;;;;31.81;18.65;101952.80;105851;1254;64373;-87
2023/05/03 09:26:39;;;;;;;1.80;0.70;;;;;;;31.68;18.30;101951.48;106359;1254;73617;-86
2023/05/03 09:29:07;;;;;;;2.70;0.70;;;;;;;31.58;18.62;101950.72;106262;1254;61983;-89
2023/05/03 09:31:35;;;;;;;2.40;0.70;;;;;;;31.58;18.37;101948.63;106202;1257;60357;-86
2023/05/03 09:34:03;;;;;;;2.00;0.90;;;;;;;31.54;18.97;101944.96;105801;1257;73656;-86
2023/05/03 09:36:45;;;;;;;3.60;0.60;;;;;;;31.62;19.75;101947.97;105939;1253;63950;-89
2023/05/03 09:39:16;;;;;;;4.20;0.70;;;;;;;31.68;19.21;101945.14;105923;1257;72538;-87
2023/05/03 09:41:43;;;;;;;4.00;0.70;;;;;;;31.65;19.51;101935.86;108754;1253;61181;-86
2023/05/03 09:44:10;;;;;;;2.30;0.80;;;;;;;31.72;19.44;101936.27;109145;1253;60440;-86
2023/05/03 09:46:37;;;;;;;8.70;0.80;;;;;;;31.86;19.27;101936.89;108047;1252;73675;-86
2023/05/03 09:49:04;;;;;;;2.70;0.60;;;;;;;31.96;19.07;101940.77;108947;1254;64724;-84
2023/05/03 09:51:31;;;;;;;2.00;1.00;;;;;;;31.97;18.38;101946.61;109695;1252;72594;-86
2023/05/03 09:53:59;;;;;;;4.00;0.90;;;;;;;31.95;18.26;101948.66;109721;1252;60172;-87
2023/05/03 09:56:26;;;;;;;3.20;0.90;;;;;;;31.93;18.69;101944.48;106809;1255;60415;-89
2023/05/03 09:58:53;;;;;;;3.20;0.90;;;;;;;31.98;19.56;101940.02;105993;1254;75392;-88
2023/05/03 10:01:23;;;;;;;2.80;0.90;;;;;;;31.99;20.62;101933.69;106093;1256;64652;-85
2023/05/03 10:03:53;;;;;;;3.70;1.10;;;;;;;31.94;20.53;101932.75;106026;1254;73660;-90
2023/05/03 10:06:25;;;;;;;5.40;4.90;;;;;;;32.00;19.78;101930.13;106214;1255;61834;-84
2023/05/03 10:09:05;;;;;;;;;;;;;;;32.02;18.82;101925.34;106045;1254;61513;-91
2023/05/03 10:11:35;;;;;;;2.30;0.80;;;;;;;31.90;18.09;101922.47;105848;1254;74172;-86
2023/05/03 10:14:04;;;;;;;1.30;0.70;;;;;;;31.69;19.93;101925.70;106012;1255;63940;-91
2023/05/03 10:16:36;;;;;;;1.40;0.90;;;;;;;31.68;19.64;101925.77;106000;1257;74580;-86
2023/05/03 10:19:10;;;;;;;3.10;0.90;;;;;;;31.70;18.68;101921.56;106036;1257;61343;-85
2023/05/03 10:22:07;;;;;;;3.60;1.10;;;;;;;31.59;18.86;101912.74;106039;1255;60459;-90
2023/05/03 10:24:36;;;;;;;3.30;0.70;;;;;;;31.51;19.16;101916.41;106358;1254;74792;-87
2023/05/03 10:27:06;;;;;;;3.20;0.80;;;;;;;31.50;18.22;101917.55;106093;1254;63426;-86
2023/05/03 10:29:33;;;;;;;3.90;0.90;;;;;;;31.40;18.14;101914.13;106216;1254;73099;-89
2023/05/03 10:32:04;;;;;;;3.00;0.60;;;;;;;31.30;18.72;101919.38;106217;1254;61415;-88
2023/05/03 10:34:32;;;;;;;2.90;0.90;;;;;;;31.25;18.19;101912.55;107397;1254;61504;-87
2023/05/03 10:37:01;;;;;;;2.40;0.30;;;;;;;31.22;18.90;101909.86;109200;1253;75530;-86
2023/05/03 10:39:28;;;;;;;3.00;0.60;;;;;;;31.30;18.55;101911.41;108715;1251;64492;-86
2023/05/03 10:41:58;;;;;;;1.20;0.70;;;;;;;31.14;18.42;101909.77;106878;1252;71269;-88
2023/05/03 10:44:30;;;;;;;4.60;0.60;;;;;;;31.16;18.91;101909.32;108061;1252;61235;-86
2023/05/03 10:47:13;;;;;;;1.90;0.80;;;;;;;31.23;19.88;101909.41;108978;1252;60147;-87
2023/05/03 10:49:40;;;;;;;1.80;0.80;;;;;;;31.26;19.50;101909.73;109497;1254;73771;-86
2023/05/03 10:52:38;;;;;;;1.50;0.90;;;;;;;31.21;19.93;101902.80;106259;1252;63974;-87
2023/05/03 10:55:17;;;;;;;2.90;0.50;;;;;;;31.19;20.43;101902.63;106119;1254;73675;-87
2023/05/03 10:57:46;;;;;;;1.80;0.60;;;;;;;31.28;20.63;101905.38;106085;1254;61435;-89
2023/05/03 11:00:17;;;;;;;2.60;1.00;;;;;;;31.42;20.69;101901.25;107711;1253;60366;-87
2023/05/03 11:03:14;;;;;;;7.60;0.90;;;;;;;31.46;20.06;101897.49;109538;1254;73999;-88
2023/05/03 11:05:42;;;;;;;2.40;0.60;;;;;;;31.47;20.17;101900.38;107558;1252;65069;-87
2023/05/03 11:08:16;;;;;;;3.10;0.90;;;;;;;31.42;19.89;101896.66;107411;1254;72610;-86
2023/05/03 11:10:45;;;;;;;1.80;0.90;;;;;;;31.37;20.08;101892.56;106782;1254;60544;-86
2023/05/03 11:13:12;;;;;;;3.30;0.70;;;;;;;31.34;19.84;101887.13;106261;1253;61303;-86
2023/05/03 11:15:39;;;;;;;1.40;0.50;;;;;;;31.06;19.39;101890.73;105993;1252;75225;-88
2023/05/03 11:18:08;;;;;;;1.60;0.90;;;;;;;30.61;19.94;101887.45;105956;1254;64739;-89
2023/05/03 11:20:35;;;;;;;1.10;0.80;;;;;;;30.21;20.11;101885.73;105981;1257;73483;-86
2023/05/03 11:23:03;;;;;;;1.10;1.00;;;;;;;29.72;20.67;101883.95;105906;1257;61510;-88